Garden City, South Dakota
Current Conditions -  °F | °C
As of 9:04 PM on Wednesday 22 Oct 2014 (Local Time) from KATY Reporting Station
Scattered Clouds Scattered Clouds  
Wind Chill: 53°   Ceiling: Unl
Heat Index: 53°   Visibility: 10mi
Dew Point: 52°   Wind: 9mph
Humidity: 96%   Direction: 250°WSW
Pressure: 29.96"   Gusts: NA
Location:  44.96°N, 97.58°W
Report Text: KATY 230204Z AUTO 25008KT 10SM FEW007 SCT011 12/11 A2996 RMK AO2 T01170111
Loading
Personal Weather Stations






























Interactive Weather Map
Tropical Storm Tracking
New forecast layout! Learn more

10-Day Weather Forecast

Advertisements
Track Severe Weather on mobile